Isle of North Uist, United Kingdom
Current Conditions -  °F | °C
As of 1:50 PM on Friday 31 Oct 2014 (Local Time) from EGPL Reporting Station
Rain Showers Rain Showers  
Wind Chill: 55°   Ceiling: Unl
Heat Index: 55°   Visibility: 6mi
Dew Point: 55°   Wind: 14mph
Humidity: 100%   Direction: 190°S
Pressure: 29.53"   Gusts: NA
Location:  57.6°N, 7.16°W
Report Text: EGPL 311350Z 19012KT 9999 VCSH FEW003 SCT010 13/13 Q1000
Loading
Personal Weather Stations






























Interactive Weather Map New forecast layout! Learn more

10-Day Weather Forecast

Advertisements
Track Severe Weather on mobile